sensor_id;sensor_type;location;lat;lon;timestamp;temperature;humidity
8945;DHT22;4507;40.232;29.132;2023-01-15T00:02:17;9.60;99.70
8945;DHT22;4507;40.232;29.132;2023-01-15T00:04:49;9.60;99.70
8945;DHT22;4507;40.232;29.132;2023-01-15T00:07:18;9.60;99.90
8945;DHT22;4507;40.232;29.132;2023-01-15T00:09:49;9.60;99.90
8945;DHT22;4507;40.232;29.132;2023-01-15T00:12:18;9.60;99.90
8945;DHT22;4507;40.232;29.132;2023-01-15T00:14:47;9.60;99.90
8945;DHT22;4507;40.232;29.132;2023-01-15T00:17:16;9.60;99.80
8945;DHT22;4507;40.232;29.132;2023-01-15T00:19:46;9.60;99.80
8945;DHT22;4507;40.232;29.132;2023-01-15T00:22:16;9.60;99.80
8945;DHT22;4507;40.232;29.132;2023-01-15T00:24:45;9.60;99.80
8945;DHT22;4507;40.232;29.132;2023-01-15T00:27:31;9.70;99.80
8945;DHT22;4507;40.232;29.132;2023-01-15T00:30:10;9.70;99.70
8945;DHT22;4507;40.232;29.132;2023-01-15T00:32:40;9.70;99.70
8945;DHT22;4507;40.232;29.132;2023-01-15T00:35:12;9.70;99.70
8945;DHT22;4507;40.232;29.132;2023-01-15T00:37:42;9.70;99.80
8945;DHT22;4507;40.232;29.132;2023-01-15T00:40:12;9.70;99.90
8945;DHT22;4507;40.232;29.132;2023-01-15T00:42:42;9.70;99.90
8945;DHT22;4507;40.232;29.132;2023-01-15T00:45:21;9.70;99.90
8945;DHT22;4507;40.232;29.132;2023-01-15T00:47:50;9.70;99.80
8945;DHT22;4507;40.232;29.132;2023-01-15T00:50:20;9.70;99.70
8945;DHT22;4507;40.232;29.132;2023-01-15T00:52:50;9.60;99.60
8945;DHT22;4507;40.232;29.132;2023-01-15T00:55:20;9.60;99.60
8945;DHT22;4507;40.232;29.132;2023-01-15T00:57:48;9.60;99.70
8945;DHT22;4507;40.232;29.132;2023-01-15T01:00:18;9.50;99.90
8945;DHT22;4507;40.232;29.132;2023-01-15T01:02:47;9.50;99.90
8945;DHT22;4507;40.232;29.132;2023-01-15T01:05:16;9.40;99.90
8945;DHT22;4507;40.232;29.132;2023-01-15T01:07:45;9.40;99.90
8945;DHT22;4507;40.232;29.132;2023-01-15T01:10:15;9.40;99.90
8945;DHT22;4507;40.232;29.132;2023-01-15T01:12:45;9.30;99.90
8945;DHT22;4507;40.232;29.132;2023-01-15T01:15:18;9.30;99.90
8945;DHT22;4507;40.232;29.132;2023-01-15T01:17:47;9.20;99.90
8945;DHT22;4507;40.232;29.132;2023-01-15T01:20:17;9.20;99.90
8945;DHT22;4507;40.232;29.132;2023-01-15T01:22:47;9.20;99.90
8945;DHT22;4507;40.232;29.132;2023-01-15T01:25:18;9.20;99.90
8945;DHT22;4507;40.232;29.132;2023-01-15T01:27:48;9.20;99.90
8945;DHT22;4507;40.232;29.132;2023-01-15T01:30:17;9.10;99.90
8945;DHT22;4507;40.232;29.132;2023-01-15T01:32:46;9.20;99.90
8945;DHT22;4507;40.232;29.132;2023-01-15T01:35:15;9.10;99.90
8945;DHT22;4507;40.232;29.132;2023-01-15T01:37:48;9.10;99.90
8945;DHT22;4507;40.232;29.132;2023-01-15T01:40:19;9.10;99.90
8945;DHT22;4507;40.232;29.132;2023-01-15T01:42:48;9.10;99.90
8945;DHT22;4507;40.232;29.132;2023-01-15T01:45:21;9.10;99.90
8945;DHT22;4507;40.232;29.132;2023-01-15T01:47:55;9.10;99.90
8945;DHT22;4507;40.232;29.132;2023-01-15T01:50:27;9.10;99.90
8945;DHT22;4507;40.232;29.132;2023-01-15T01:53:00;9.10;99.90
8945;DHT22;4507;40.232;29.132;2023-01-15T01:55:33;9.00;99.90
8945;DHT22;4507;40.232;29.132;2023-01-15T01:58:22;9.00;99.90
8945;DHT22;4507;40.232;29.132;2023-01-15T02:00:52;9.00;99.90
8945;DHT22;4507;40.232;29.132;2023-01-15T02:03:24;9.00;99.90
8945;DHT22;4507;40.232;29.132;2023-01-15T02:05:57;9.00;99.90
8945;DHT22;4507;40.232;29.132;2023-01-15T02:08:27;9.00;99.90
8945;DHT22;4507;40.232;29.132;2023-01-15T02:11:20;9.00;99.90
8945;DHT22;4507;40.232;29.132;2023-01-15T02:13:54;9.00;99.90
8945;DHT22;4507;40.232;29.132;2023-01-15T02:16:33;9.00;99.90
8945;DHT22;4507;40.232;29.132;2023-01-15T02:19:13;8.90;99.90
8945;DHT22;4507;40.232;29.132;2023-01-15T02:22:13;8.90;99.90
8945;DHT22;4507;40.232;29.132;2023-01-15T02:24:54;8.90;99.90
8945;DHT22;4507;40.232;29.132;2023-01-15T02:27:29;8.90;99.90
8945;DHT22;4507;40.232;29.132;2023-01-15T02:30:03;8.90;99.90
8945;DHT22;4507;40.232;29.132;2023-01-15T02:32:45;8.90;99.90
8945;DHT22;4507;40.232;29.132;2023-01-15T02:35:22;8.90;99.90
8945;DHT22;4507;40.232;29.132;2023-01-15T02:37:56;8.80;99.90
8945;DHT22;4507;40.232;29.132;2023-01-15T02:40:27;8.80;99.90
8945;DHT22;4507;40.232;29.132;2023-01-15T02:42:58;8.80;99.90
8945;DHT22;4507;40.232;29.132;2023-01-15T02:45:30;8.80;99.90
8945;DHT22;4507;40.232;29.132;2023-01-15T02:48:08;8.80;99.90
8945;DHT22;4507;40.232;29.132;2023-01-15T02:50:42;8.80;99.90
8945;DHT22;4507;40.232;29.132;2023-01-15T02:53:15;8.80;99.90
8945;DHT22;4507;40.232;29.132;2023-01-15T02:55:47;8.80;99.90
8945;DHT22;4507;40.232;29.132;2023-01-15T02:58:24;8.80;99.90
8945;DHT22;4507;40.232;29.132;2023-01-15T03:01:00;8.80;99.90
8945;DHT22;4507;40.232;29.132;2023-01-15T03:03:37;8.80;99.90
8945;DHT22;4507;40.232;29.132;2023-01-15T03:06:12;8.80;99.90
8945;DHT22;4507;40.232;29.132;2023-01-15T03:08:42;8.80;99.90
8945;DHT22;4507;40.232;29.132;2023-01-15T03:11:13;8.70;99.90
8945;DHT22;4507;40.232;29.132;2023-01-15T03:13:50;8.80;99.90
8945;DHT22;4507;40.232;29.132;2023-01-15T03:16:28;8.70;99.90
8945;DHT22;4507;40.232;29.132;2023-01-15T03:19:21;8.70;99.90
8945;DHT22;4507;40.232;29.132;2023-01-15T03:21:56;8.70;99.90
8945;DHT22;4507;40.232;29.132;2023-01-15T03:24:34;8.70;99.90
8945;DHT22;4507;40.232;29.132;2023-01-15T03:27:05;8.70;99.90
8945;DHT22;4507;40.232;29.132;2023-01-15T03:29:41;8.70;99.90
8945;DHT22;4507;40.232;29.132;2023-01-15T03:32:11;8.60;99.90
8945;DHT22;4507;40.232;29.132;2023-01-15T03:34:42;8.60;99.90
8945;DHT22;4507;40.232;29.132;2023-01-15T03:37:17;8.60;99.90
8945;DHT22;4507;40.232;29.132;2023-01-15T03:39:47;8.60;99.90
8945;DHT22;4507;40.232;29.132;2023-01-15T03:42:32;8.60;99.90
8945;DHT22;4507;40.232;29.132;2023-01-15T03:45:12;8.50;99.90
8945;DHT22;4507;40.232;29.132;2023-01-15T03:47:52;8.50;99.90
8945;DHT22;4507;40.232;29.132;2023-01-15T03:50:30;8.50;99.90
8945;DHT22;4507;40.232;29.132;2023-01-15T03:53:07;8.50;99.90
8945;DHT22;4507;40.232;29.132;2023-01-15T03:55:51;8.50;99.90
8945;DHT22;4507;40.232;29.132;2023-01-15T03:58:25;8.40;99.90
8945;DHT22;4507;40.232;29.132;2023-01-15T04:01:01;8.50;99.90
8945;DHT22;4507;40.232;29.132;2023-01-15T04:03:33;8.40;99.90
8945;DHT22;4507;40.232;29.132;2023-01-15T04:06:04;8.40;99.90
8945;DHT22;4507;40.232;29.132;2023-01-15T04:08:38;8.40;99.90
8945;DHT22;4507;40.232;29.132;2023-01-15T04:11:08;8.40;99.90
8945;DHT22;4507;40.232;29.132;2023-01-15T04:13:55;8.40;99.90
8945;DHT22;4507;40.232;29.132;2023-01-15T04:16:48;8.30;99.90
8945;DHT22;4507;40.232;29.132;2023-01-15T04:19:17;8.40;99.90
8945;DHT22;4507;40.232;29.132;2023-01-15T04:21:56;8.30;99.90
8945;DHT22;4507;40.232;29.132;2023-01-15T04:24:25;8.30;99.90
8945;DHT22;4507;40.232;29.132;2023-01-15T04:26:54;8.30;99.90
8945;DHT22;4507;40.232;29.132;2023-01-15T04:29:23;8.30;99.90
8945;DHT22;4507;40.232;29.132;2023-01-15T04:31:54;8.30;99.90
8945;DHT22;4507;40.232;29.132;2023-01-15T04:34:24;8.20;99.90
8945;DHT22;4507;40.232;29.132;2023-01-15T04:36:54;8.20;99.90
8945;DHT22;4507;40.232;29.132;2023-01-15T04:39:24;8.20;99.90
8945;DHT22;4507;40.232;29.132;2023-01-15T04:41:53;8.20;99.90
8945;DHT22;4507;40.232;29.132;2023-01-15T04:44:39;8.20;99.90
8945;DHT22;4507;40.232;29.132;2023-01-15T04:47:09;8.20;99.90
8945;DHT22;4507;40.232;29.132;2023-01-15T04:49:38;8.10;99.90
8945;DHT22;4507;40.232;29.132;2023-01-15T04:52:08;8.20;99.90
8945;DHT22;4507;40.232;29.132;2023-01-15T04:54:37;8.20;99.90
8945;DHT22;4507;40.232;29.132;2023-01-15T04:57:06;8.10;99.90
8945;DHT22;4507;40.232;29.132;2023-01-15T04:59:35;8.10;99.90
8945;DHT22;4507;40.232;29.132;2023-01-15T05:02:04;8.10;99.90
8945;DHT22;4507;40.232;29.132;2023-01-15T05:04:35;8.10;99.90
8945;DHT22;4507;40.232;29.132;2023-01-15T05:07:04;8.00;99.90
8945;DHT22;4507;40.232;29.132;2023-01-15T05:09:33;8.00;99.90
8945;DHT22;4507;40.232;29.132;2023-01-15T05:12:03;8.00;99.90
8945;DHT22;4507;40.232;29.132;2023-01-15T05:14:32;7.90;99.90
8945;DHT22;4507;40.232;29.132;2023-01-15T05:17:01;7.90;99.90
8945;DHT22;4507;40.232;29.132;2023-01-15T05:19:30;7.90;99.90
8945;DHT22;4507;40.232;29.132;2023-01-15T05:22:00;7.90;99.90
8945;DHT22;4507;40.232;29.132;2023-01-15T05:24:30;7.90;99.90
8945;DHT22;4507;40.232;29.132;2023-01-15T05:26:59;7.80;99.90
8945;DHT22;4507;40.232;29.132;2023-01-15T05:29:28;7.80;99.90
8945;DHT22;4507;40.232;29.132;2023-01-15T05:31:57;7.80;99.90
8945;DHT22;4507;40.232;29.132;2023-01-15T05:34:26;7.80;99.90
8945;DHT22;4507;40.232;29.132;2023-01-15T05:36:55;7.80;99.90
8945;DHT22;4507;40.232;29.132;2023-01-15T05:39:25;7.80;99.90
8945;DHT22;4507;40.232;29.132;2023-01-15T05:41:54;7.90;99.90
8945;DHT22;4507;40.232;29.132;2023-01-15T05:44:24;7.90;99.90
8945;DHT22;4507;40.232;29.132;2023-01-15T05:46:55;7.90;99.90
8945;DHT22;4507;40.232;29.132;2023-01-15T05:49:26;7.90;99.90
8945;DHT22;4507;40.232;29.132;2023-01-15T05:51:57;7.90;99.90
8945;DHT22;4507;40.232;29.132;2023-01-15T05:54:48;8.00;99.90
8945;DHT22;4507;40.232;29.132;2023-01-15T05:57:17;8.00;99.90
8945;DHT22;4507;40.232;29.132;2023-01-15T05:59:46;8.00;99.90
8945;DHT22;4507;40.232;29.132;2023-01-15T06:02:16;8.10;99.90
8945;DHT22;4507;40.232;29.132;2023-01-15T06:04:45;8.10;99.90
8945;DHT22;4507;40.232;29.132;2023-01-15T06:07:14;8.10;99.90
8945;DHT22;4507;40.232;29.132;2023-01-15T06:09:44;8.20;99.90
8945;DHT22;4507;40.232;29.132;2023-01-15T06:12:15;8.20;99.90
8945;DHT22;4507;40.232;29.132;2023-01-15T06:14:44;8.20;99.90
8945;DHT22;4507;40.232;29.132;2023-01-15T06:17:13;8.30;99.90
8945;DHT22;4507;40.232;29.132;2023-01-15T06:19:42;8.30;99.90
8945;DHT22;4507;40.232;29.132;2023-01-15T06:22:11;8.40;99.90
8945;DHT22;4507;40.232;29.132;2023-01-15T06:24:40;8.40;99.90
8945;DHT22;4507;40.232;29.132;2023-01-15T06:27:09;8.40;99.90
8945;DHT22;4507;40.232;29.132;2023-01-15T06:29:40;8.50;99.90
8945;DHT22;4507;40.232;29.132;2023-01-15T06:32:09;8.50;99.90
8945;DHT22;4507;40.232;29.132;2023-01-15T06:34:38;8.60;99.90
8945;DHT22;4507;40.232;29.132;2023-01-15T06:37:09;8.60;99.90
8945;DHT22;4507;40.232;29.132;2023-01-15T06:39:38;8.70;99.90
8945;DHT22;4507;40.232;29.132;2023-01-15T06:42:08;8.80;99.90
8945;DHT22;4507;40.232;29.132;2023-01-15T06:44:55;8.80;99.90
8945;DHT22;4507;40.232;29.132;2023-01-15T06:47:50;9.00;99.90
8945;DHT22;4507;40.232;29.132;2023-01-15T06:50:19;9.10;99.90
8945;DHT22;4507;40.232;29.132;2023-01-15T06:52:48;9.40;99.90
8945;DHT22;4507;40.232;29.132;2023-01-15T06:55:17;9.70;99.90
8945;DHT22;4507;40.232;29.132;2023-01-15T06:57:46;9.70;99.90
8945;DHT22;4507;40.232;29.132;2023-01-15T07:00:17;9.80;99.90
8945;DHT22;4507;40.232;29.132;2023-01-15T07:02:47;9.90;99.90
8945;DHT22;4507;40.232;29.132;2023-01-15T07:05:16;10.00;99.90
8945;DHT22;4507;40.232;29.132;2023-01-15T07:07:45;10.00;99.90
8945;DHT22;4507;40.232;29.132;2023-01-15T07:10:14;10.10;99.90
8945;DHT22;4507;40.232;29.132;2023-01-15T07:12:43;10.40;99.90
8945;DHT22;4507;40.232;29.132;2023-01-15T07:15:13;10.50;99.90
8945;DHT22;4507;40.232;29.132;2023-01-15T07:17:44;10.80;99.90
8945;DHT22;4507;40.232;29.132;2023-01-15T07:20:32;11.20;99.90
8945;DHT22;4507;40.232;29.132;2023-01-15T07:23:01;11.50;99.00
8945;DHT22;4507;40.232;29.132;2023-01-15T07:25:30;11.60;95.80
8945;DHT22;4507;40.232;29.132;2023-01-15T07:27:59;11.60;93.20
8945;DHT22;4507;40.232;29.132;2023-01-15T07:30:28;11.60;91.90
8945;DHT22;4507;40.232;29.132;2023-01-15T07:32:58;11.40;91.00
8945;DHT22;4507;40.232;29.132;2023-01-15T07:35:27;11.30;90.90
8945;DHT22;4507;40.232;29.132;2023-01-15T07:37:57;11.20;91.50
8945;DHT22;4507;40.232;29.132;2023-01-15T07:40:26;11.20;92.90
8945;DHT22;4507;40.232;29.132;2023-01-15T07:42:55;11.40;94.20
8945;DHT22;4507;40.232;29.132;2023-01-15T07:45:42;11.60;94.10
8945;DHT22;4507;40.232;29.132;2023-01-15T07:48:30;12.00;92.70
8945;DHT22;4507;40.232;29.132;2023-01-15T07:51:16;12.20;90.60
8945;DHT22;4507;40.232;29.132;2023-01-15T07:53:45;12.40;89.50
8945;DHT22;4507;40.232;29.132;2023-01-15T07:56:14;12.50;86.40
8945;DHT22;4507;40.232;29.132;2023-01-15T07:58:43;12.50;83.70
8945;DHT22;4507;40.232;29.132;2023-01-15T08:01:16;12.50;82.60
8945;DHT22;4507;40.232;29.132;2023-01-15T08:03:47;12.50;81.90
8945;DHT22;4507;40.232;29.132;2023-01-15T08:06:16;12.50;81.50
8945;DHT22;4507;40.232;29.132;2023-01-15T08:08:45;12.50;80.00
8945;DHT22;4507;40.232;29.132;2023-01-15T08:11:14;12.50;79.50
8945;DHT22;4507;40.232;29.132;2023-01-15T08:14:00;12.60;79.40
8945;DHT22;4507;40.232;29.132;2023-01-15T08:16:47;12.70;79.50
8945;DHT22;4507;40.232;29.132;2023-01-15T08:19:18;12.90;78.00
8945;DHT22;4507;40.232;29.132;2023-01-15T08:21:47;13.10;77.10
8945;DHT22;4507;40.232;29.132;2023-01-15T08:24:16;13.20;75.10
8945;DHT22;4507;40.232;29.132;2023-01-15T08:26:45;13.30;74.70
8945;DHT22;4507;40.232;29.132;2023-01-15T08:29:15;13.40;74.50
8945;DHT22;4507;40.232;29.132;2023-01-15T08:31:44;13.50;74.40
8945;DHT22;4507;40.232;29.132;2023-01-15T08:34:13;13.70;72.50
8945;DHT22;4507;40.232;29.132;2023-01-15T08:36:44;13.90;71.50
8945;DHT22;4507;40.232;29.132;2023-01-15T08:39:13;14.00;71.20
8945;DHT22;4507;40.232;29.132;2023-01-15T08:41:42;14.20;70.50
8945;DHT22;4507;40.232;29.132;2023-01-15T08:44:11;14.30;69.60
8945;DHT22;4507;40.232;29.132;2023-01-15T08:46:41;14.50;68.80
8945;DHT22;4507;40.232;29.132;2023-01-15T08:49:11;14.70;67.70
8945;DHT22;4507;40.232;29.132;2023-01-15T08:51:40;14.90;66.00
8945;DHT22;4507;40.232;29.132;2023-01-15T08:54:11;15.00;64.30
8945;DHT22;4507;40.232;29.132;2023-01-15T08:56:41;15.10;64.10
8945;DHT22;4507;40.232;29.132;2023-01-15T08:59:11;15.30;63.70
8945;DHT22;4507;40.232;29.132;2023-01-15T09:01:41;15.40;63.10
8945;DHT22;4507;40.232;29.132;2023-01-15T09:04:13;15.60;62.40
8945;DHT22;4507;40.232;29.132;2023-01-15T09:06:43;15.70;61.10
8945;DHT22;4507;40.232;29.132;2023-01-15T09:09:14;15.90;60.00
8945;DHT22;4507;40.232;29.132;2023-01-15T09:11:45;16.00;58.30
8945;DHT22;4507;40.232;29.132;2023-01-15T09:14:14;16.00;57.50
8945;DHT22;4507;40.232;29.132;2023-01-15T09:17:03;16.00;57.30
8945;DHT22;4507;40.232;29.132;2023-01-15T09:19:33;16.00;57.40
8945;DHT22;4507;40.232;29.132;2023-01-15T09:22:02;16.00;56.50
8945;DHT22;4507;40.232;29.132;2023-01-15T09:24:32;16.00;55.40
8945;DHT22;4507;40.232;29.132;2023-01-15T09:27:02;16.10;55.40
8945;DHT22;4507;40.232;29.132;2023-01-15T09:29:31;16.00;54.60
8945;DHT22;4507;40.232;29.132;2023-01-15T09:32:00;16.10;55.10
8945;DHT22;4507;40.232;29.132;2023-01-15T09:34:30;16.10;55.20
8945;DHT22;4507;40.232;29.132;2023-01-15T09:36:59;16.20;54.80
8945;DHT22;4507;40.232;29.132;2023-01-15T09:39:28;16.30;54.10
8945;DHT22;4507;40.232;29.132;2023-01-15T09:42:12;16.30;54.30
8945;DHT22;4507;40.232;29.132;2023-01-15T09:45:07;16.30;54.20
8945;DHT22;4507;40.232;29.132;2023-01-15T09:47:41;16.40;54.90
8945;DHT22;4507;40.232;29.132;2023-01-15T09:50:20;16.40;54.50
8945;DHT22;4507;40.232;29.132;2023-01-15T09:55:52;16.60;54.80
8945;DHT22;4507;40.232;29.132;2023-01-15T09:58:31;16.70;54.70
8945;DHT22;4507;40.232;29.132;2023-01-15T10:01:02;16.70;54.60
8945;DHT22;4507;40.232;29.132;2023-01-15T10:03:35;16.80;55.00
8945;DHT22;4507;40.232;29.132;2023-01-15T10:06:13;16.90;54.50
8945;DHT22;4507;40.232;29.132;2023-01-15T10:08:45;17.00;54.90
8945;DHT22;4507;40.232;29.132;2023-01-15T10:11:27;17.10;55.40
8945;DHT22;4507;40.232;29.132;2023-01-15T10:14:36;17.30;54.60
8945;DHT22;4507;40.232;29.132;2023-01-15T10:17:18;17.50;53.50
8945;DHT22;4507;40.232;29.132;2023-01-15T10:19:48;17.70;53.40
8945;DHT22;4507;40.232;29.132;2023-01-15T10:22:38;17.80;53.30
8945;DHT22;4507;40.232;29.132;2023-01-15T10:25:15;18.00;51.70
8945;DHT22;4507;40.232;29.132;2023-01-15T10:27:46;18.10;50.60
8945;DHT22;4507;40.232;29.132;2023-01-15T10:30:28;18.10;49.60
8945;DHT22;4507;40.232;29.132;2023-01-15T10:33:08;18.00;48.90
8945;DHT22;4507;40.232;29.132;2023-01-15T10:35:48;18.00;49.20
8945;DHT22;4507;40.232;29.132;2023-01-15T10:38:25;18.00;47.70
8945;DHT22;4507;40.232;29.132;2023-01-15T10:41:16;17.90;46.80
8945;DHT22;4507;40.232;29.132;2023-01-15T10:43:52;17.90;46.50
8945;DHT22;4507;40.232;29.132;2023-01-15T10:46:27;17.90;45.90
8945;DHT22;4507;40.232;29.132;2023-01-15T10:49:02;17.70;45.00
8945;DHT22;4507;40.232;29.132;2023-01-15T10:51:39;17.40;45.00
8945;DHT22;4507;40.232;29.132;2023-01-15T10:54:15;17.00;45.20
8945;DHT22;4507;40.232;29.132;2023-01-15T10:56:50;16.60;45.70
8945;DHT22;4507;40.232;29.132;2023-01-15T10:59:32;16.20;47.00
8945;DHT22;4507;40.232;29.132;2023-01-15T11:02:20;15.90;48.60
8945;DHT22;4507;40.232;29.132;2023-01-15T11:04:51;15.80;50.10
8945;DHT22;4507;40.232;29.132;2023-01-15T11:07:25;15.80;50.70
8945;DHT22;4507;40.232;29.132;2023-01-15T11:09:58;15.80;51.10
8945;DHT22;4507;40.232;29.132;2023-01-15T11:12:30;16.00;51.00
8945;DHT22;4507;40.232;29.132;2023-01-15T11:15:21;16.00;50.00
8945;DHT22;4507;40.232;29.132;2023-01-15T11:18:13;16.00;49.50
8945;DHT22;4507;40.232;29.132;2023-01-15T11:21:18;16.10;49.80
8945;DHT22;4507;40.232;29.132;2023-01-15T11:23:48;16.00;49.30
8945;DHT22;4507;40.232;29.132;2023-01-15T11:26:20;15.90;49.40
8945;DHT22;4507;40.232;29.132;2023-01-15T11:28:50;15.80;49.70
8945;DHT22;4507;40.232;29.132;2023-01-15T11:31:20;15.80;50.00
8945;DHT22;4507;40.232;29.132;2023-01-15T11:33:58;15.80;49.50
8945;DHT22;4507;40.232;29.132;2023-01-15T11:36:46;15.70;49.70
8945;DHT22;4507;40.232;29.132;2023-01-15T11:39:26;15.70;50.20
8945;DHT22;4507;40.232;29.132;2023-01-15T11:42:04;15.70;50.80
8945;DHT22;4507;40.232;29.132;2023-01-15T11:44:52;15.70;50.70
8945;DHT22;4507;40.232;29.132;2023-01-15T11:47:49;15.70;50.10
8945;DHT22;4507;40.232;29.132;2023-01-15T11:50:39;15.70;50.10
8945;DHT22;4507;40.232;29.132;2023-01-15T11:53:18;15.70;50.40
8945;DHT22;4507;40.232;29.132;2023-01-15T11:55:54;15.70;50.50
8945;DHT22;4507;40.232;29.132;2023-01-15T11:58:23;15.80;50.10
8945;DHT22;4507;40.232;29.132;2023-01-15T12:00:54;15.70;49.60
8945;DHT22;4507;40.232;29.132;2023-01-15T12:03:27;15.70;49.80
8945;DHT22;4507;40.232;29.132;2023-01-15T12:06:01;15.70;49.70
8945;DHT22;4507;40.232;29.132;2023-01-15T12:08:44;15.70;50.10
8945;DHT22;4507;40.232;29.132;2023-01-15T12:11:45;15.70;50.00
8945;DHT22;4507;40.232;29.132;2023-01-15T12:17:34;15.60;50.50
8945;DHT22;4507;40.232;29.132;2023-01-15T12:20:18;15.60;50.70
8945;DHT22;4507;40.232;29.132;2023-01-15T12:23:01;15.60;51.10
8945;DHT22;4507;40.232;29.132;2023-01-15T12:25:41;15.60;51.00
8945;DHT22;4507;40.232;29.132;2023-01-15T12:28:14;15.60;50.60
8945;DHT22;4507;40.232;29.132;2023-01-15T12:30:53;15.60;50.80
8945;DHT22;4507;40.232;29.132;2023-01-15T12:33:34;15.60;50.90
8945;DHT22;4507;40.232;29.132;2023-01-15T12:36:09;15.50;50.80
8945;DHT22;4507;40.232;29.132;2023-01-15T12:38:50;15.50;50.90
8945;DHT22;4507;40.232;29.132;2023-01-15T12:41:25;15.50;50.70
8945;DHT22;4507;40.232;29.132;2023-01-15T12:44:17;15.50;50.80
8945;DHT22;4507;40.232;29.132;2023-01-15T12:47:23;15.50;51.10
8945;DHT22;4507;40.232;29.132;2023-01-15T12:49:56;15.40;51.20
8945;DHT22;4507;40.232;29.132;2023-01-15T12:52:32;15.40;51.50
8945;DHT22;4507;40.232;29.132;2023-01-15T12:55:12;15.30;51.50
8945;DHT22;4507;40.232;29.132;2023-01-15T12:57:45;15.30;51.50
8945;DHT22;4507;40.232;29.132;2023-01-15T13:00:17;15.30;51.50
8945;DHT22;4507;40.232;29.132;2023-01-15T13:03:00;15.30;51.80
8945;DHT22;4507;40.232;29.132;2023-01-15T13:05:36;15.30;51.90
8945;DHT22;4507;40.232;29.132;2023-01-15T13:08:11;15.30;51.80
8945;DHT22;4507;40.232;29.132;2023-01-15T13:10:45;15.30;51.70
8945;DHT22;4507;40.232;29.132;2023-01-15T13:13:18;15.40;51.80
8945;DHT22;4507;40.232;29.132;2023-01-15T13:16:02;15.30;51.10
8945;DHT22;4507;40.232;29.132;2023-01-15T13:18:43;15.30;50.90
8945;DHT22;4507;40.232;29.132;2023-01-15T13:21:16;15.30;51.00
8945;DHT22;4507;40.232;29.132;2023-01-15T13:24:11;15.20;51.10
8945;DHT22;4507;40.232;29.132;2023-01-15T13:27:08;15.20;51.60
8945;DHT22;4507;40.232;29.132;2023-01-15T13:29:56;15.20;52.10
8945;DHT22;4507;40.232;29.132;2023-01-15T13:32:30;15.20;52.20
8945;DHT22;4507;40.232;29.132;2023-01-15T13:35:05;15.10;51.90
8945;DHT22;4507;40.232;29.132;2023-01-15T13:37:41;15.20;52.00
8945;DHT22;4507;40.232;29.132;2023-01-15T13:40:17;15.10;52.00
8945;DHT22;4507;40.232;29.132;2023-01-15T13:42:52;15.10;51.90
8945;DHT22;4507;40.232;29.132;2023-01-15T13:45:28;15.10;52.20
8945;DHT22;4507;40.232;29.132;2023-01-15T13:48:05;15.10;52.40
8945;DHT22;4507;40.232;29.132;2023-01-15T13:50:36;15.00;52.50
8945;DHT22;4507;40.232;29.132;2023-01-15T13:53:16;15.00;52.70
8945;DHT22;4507;40.232;29.132;2023-01-15T13:55:52;15.00;52.80
8945;DHT22;4507;40.232;29.132;2023-01-15T13:58:26;14.90;52.70
8945;DHT22;4507;40.232;29.132;2023-01-15T14:01:06;14.90;52.90
8945;DHT22;4507;40.232;29.132;2023-01-15T14:03:37;14.80;53.00
8945;DHT22;4507;40.232;29.132;2023-01-15T14:06:07;14.80;53.10
8945;DHT22;4507;40.232;29.132;2023-01-15T14:08:39;14.80;53.30
8945;DHT22;4507;40.232;29.132;2023-01-15T14:11:36;14.70;53.60
8945;DHT22;4507;40.232;29.132;2023-01-15T14:17:23;14.60;54.00
8945;DHT22;4507;40.232;29.132;2023-01-15T14:20:21;14.60;54.20
8945;DHT22;4507;40.232;29.132;2023-01-15T14:23:03;14.50;54.90
8945;DHT22;4507;40.232;29.132;2023-01-15T14:25:49;14.50;55.20
8945;DHT22;4507;40.232;29.132;2023-01-15T14:28:33;14.50;55.60
8945;DHT22;4507;40.232;29.132;2023-01-15T14:31:40;14.40;55.40
8945;DHT22;4507;40.232;29.132;2023-01-15T14:34:13;14.40;55.60
8945;DHT22;4507;40.232;29.132;2023-01-15T14:37:03;14.30;55.80
8945;DHT22;4507;40.232;29.132;2023-01-15T14:39:40;14.20;55.90
8945;DHT22;4507;40.232;29.132;2023-01-15T14:42:13;14.10;56.10
8945;DHT22;4507;40.232;29.132;2023-01-15T14:45:04;14.00;56.20
8945;DHT22;4507;40.232;29.132;2023-01-15T14:47:43;13.90;56.10
8945;DHT22;4507;40.232;29.132;2023-01-15T14:50:31;13.80;56.20
8945;DHT22;4507;40.232;29.132;2023-01-15T14:53:05;13.60;56.50
8945;DHT22;4507;40.232;29.132;2023-01-15T14:55:46;13.50;56.70
8945;DHT22;4507;40.232;29.132;2023-01-15T14:58:28;13.40;57.20
8945;DHT22;4507;40.232;29.132;2023-01-15T15:01:01;13.30;57.70
8945;DHT22;4507;40.232;29.132;2023-01-15T15:03:35;13.20;58.00
8945;DHT22;4507;40.232;29.132;2023-01-15T15:06:07;13.10;58.40
8945;DHT22;4507;40.232;29.132;2023-01-15T15:08:40;13.10;58.80
8945;DHT22;4507;40.232;29.132;2023-01-15T15:11:17;13.00;59.20
8945;DHT22;4507;40.232;29.132;2023-01-15T15:14:03;12.90;59.60
8945;DHT22;4507;40.232;29.132;2023-01-15T15:16:39;12.80;60.00
8945;DHT22;4507;40.232;29.132;2023-01-15T15:19:17;12.70;60.50
8945;DHT22;4507;40.232;29.132;2023-01-15T15:21:50;12.60;61.00
8945;DHT22;4507;40.232;29.132;2023-01-15T15:24:23;12.50;61.50
8945;DHT22;4507;40.232;29.132;2023-01-15T15:26:54;12.40;62.00
8945;DHT22;4507;40.232;29.132;2023-01-15T15:29:23;12.40;62.50
8945;DHT22;4507;40.232;29.132;2023-01-15T15:31:55;12.30;63.00
8945;DHT22;4507;40.232;29.132;2023-01-15T15:34:28;12.20;63.50
8945;DHT22;4507;40.232;29.132;2023-01-15T15:37:01;12.20;64.00
8945;DHT22;4507;40.232;29.132;2023-01-15T15:39:43;12.10;64.40
8945;DHT22;4507;40.232;29.132;2023-01-15T15:42:16;12.10;64.90
8945;DHT22;4507;40.232;29.132;2023-01-15T15:45:14;12.10;65.10
8945;DHT22;4507;40.232;29.132;2023-01-15T15:48:15;12.00;65.30
8945;DHT22;4507;40.232;29.132;2023-01-15T15:51:04;12.00;65.90
8945;DHT22;4507;40.232;29.132;2023-01-15T15:54:11;11.90;65.90
8945;DHT22;4507;40.232;29.132;2023-01-15T15:56:46;11.70;66.20
8945;DHT22;4507;40.232;29.132;2023-01-15T15:59:21;11.60;66.60
8945;DHT22;4507;40.232;29.132;2023-01-15T16:01:54;11.60;67.20
8945;DHT22;4507;40.232;29.132;2023-01-15T16:04:26;11.50;67.60
8945;DHT22;4507;40.232;29.132;2023-01-15T16:06:59;11.50;68.10
8945;DHT22;4507;40.232;29.132;2023-01-15T16:09:31;11.40;68.50
8945;DHT22;4507;40.232;29.132;2023-01-15T16:12:02;11.40;68.90
8945;DHT22;4507;40.232;29.132;2023-01-15T16:14:34;11.30;69.10
8945;DHT22;4507;40.232;29.132;2023-01-15T16:17:05;11.30;69.50
8945;DHT22;4507;40.232;29.132;2023-01-15T16:19:36;11.20;69.80
8945;DHT22;4507;40.232;29.132;2023-01-15T16:22:07;11.10;70.20
8945;DHT22;4507;40.232;29.132;2023-01-15T16:24:39;11.10;70.80
8945;DHT22;4507;40.232;29.132;2023-01-15T16:27:14;11.10;71.20
8945;DHT22;4507;40.232;29.132;2023-01-15T16:29:52;11.00;71.50
8945;DHT22;4507;40.232;29.132;2023-01-15T16:32:26;11.00;71.80
8945;DHT22;4507;40.232;29.132;2023-01-15T16:35:05;11.00;72.20
8945;DHT22;4507;40.232;29.132;2023-01-15T16:37:36;10.90;72.50
8945;DHT22;4507;40.232;29.132;2023-01-15T16:40:07;10.90;72.80
8945;DHT22;4507;40.232;29.132;2023-01-15T16:42:44;10.90;73.20
8945;DHT22;4507;40.232;29.132;2023-01-15T16:45:22;10.80;73.40
8945;DHT22;4507;40.232;29.132;2023-01-15T16:48:09;10.70;73.90
8945;DHT22;4507;40.232;29.132;2023-01-15T16:50:39;10.60;74.10
8945;DHT22;4507;40.232;29.132;2023-01-15T16:53:35;10.60;74.50